sensor_id;sensor_type;location;lat;lon;timestamp;P1;durP1;ratioP1;P2;durP2;ratioP2
20705;SDS011;10514;49.468;11.044;2023-03-31T00:00:09;2.80;;;0.98;;
20705;SDS011;10514;49.468;11.044;2023-03-31T00:02:39;3.33;;;1.17;;
20705;SDS011;10514;49.468;11.044;2023-03-31T00:05:07;5.85;;;1.40;;
20705;SDS011;10514;49.468;11.044;2023-03-31T00:07:34;1.85;;;0.90;;
20705;SDS011;10514;49.468;11.044;2023-03-31T00:10:02;5.32;;;1.38;;
20705;SDS011;10514;49.468;11.044;2023-03-31T00:12:29;4.28;;;1.20;;
20705;SDS011;10514;49.468;11.044;2023-03-31T00:14:55;5.25;;;1.50;;
20705;SDS011;10514;49.468;11.044;2023-03-31T00:17:21;5.05;;;1.27;;
20705;SDS011;10514;49.468;11.044;2023-03-31T00:19:47;2.42;;;1.30;;
20705;SDS011;10514;49.468;11.044;2023-03-31T00:22:15;2.67;;;1.00;;
20705;SDS011;10514;49.468;11.044;2023-03-31T00:24:46;5.25;;;1.48;;
20705;SDS011;10514;49.468;11.044;2023-03-31T00:27:12;5.80;;;1.20;;
20705;SDS011;10514;49.468;11.044;2023-03-31T00:29:38;4.35;;;1.67;;
20705;SDS011;10514;49.468;11.044;2023-03-31T00:32:05;3.50;;;1.13;;
20705;SDS011;10514;49.468;11.044;2023-03-31T00:34:31;4.70;;;1.27;;
20705;SDS011;10514;49.468;11.044;2023-03-31T00:36:58;5.53;;;1.80;;
20705;SDS011;10514;49.468;11.044;2023-03-31T00:39:26;4.57;;;1.15;;
20705;SDS011;10514;49.468;11.044;2023-03-31T00:41:56;2.95;;;1.63;;
20705;SDS011;10514;49.468;11.044;2023-03-31T00:44:22;5.75;;;1.92;;
20705;SDS011;10514;49.468;11.044;2023-03-31T00:49:38;2.83;;;1.30;;
20705;SDS011;10514;49.468;11.044;2023-03-31T00:54:31;3.67;;;1.25;;
20705;SDS011;10514;49.468;11.044;2023-03-31T00:56:58;2.95;;;1.10;;
20705;SDS011;10514;49.468;11.044;2023-03-31T00:59:27;2.05;;;1.30;;
20705;SDS011;10514;49.468;11.044;2023-03-31T01:01:56;3.10;;;1.27;;
20705;SDS011;10514;49.468;11.044;2023-03-31T01:04:23;3.55;;;1.35;;
20705;SDS011;10514;49.468;11.044;2023-03-31T01:09:56;3.70;;;1.40;;
20705;SDS011;10514;49.468;11.044;2023-03-31T01:12:24;4.78;;;1.60;;
20705;SDS011;10514;49.468;11.044;2023-03-31T01:14:50;5.03;;;2.08;;
20705;SDS011;10514;49.468;11.044;2023-03-31T01:17:17;3.75;;;1.52;;
20705;SDS011;10514;49.468;11.044;2023-03-31T01:19:51;5.05;;;1.42;;
20705;SDS011;10514;49.468;11.044;2023-03-31T01:24:55;2.78;;;1.48;;
20705;SDS011;10514;49.468;11.044;2023-03-31T01:35:14;6.28;;;1.65;;
20705;SDS011;10514;49.468;11.044;2023-03-31T01:40:58;8.50;;;1.85;;
20705;SDS011;10514;49.468;11.044;2023-03-31T01:56:48;3.13;;;1.42;;
20705;SDS011;10514;49.468;11.044;2023-03-31T01:59:25;4.53;;;1.33;;
20705;SDS011;10514;49.468;11.044;2023-03-31T02:04:25;3.85;;;1.27;;
20705;SDS011;10514;49.468;11.044;2023-03-31T02:06:54;5.63;;;1.60;;
20705;SDS011;10514;49.468;11.044;2023-03-31T02:09:23;2.65;;;1.30;;
20705;SDS011;10514;49.468;11.044;2023-03-31T02:11:49;5.20;;;1.30;;
20705;SDS011;10514;49.468;11.044;2023-03-31T02:14:17;3.63;;;1.40;;
20705;SDS011;10514;49.468;11.044;2023-03-31T02:16:46;4.90;;;1.65;;
20705;SDS011;10514;49.468;11.044;2023-03-31T02:19:14;7.05;;;1.95;;
20705;SDS011;10514;49.468;11.044;2023-03-31T02:21:46;3.42;;;1.30;;
20705;SDS011;10514;49.468;11.044;2023-03-31T02:24:13;4.18;;;1.50;;
20705;SDS011;10514;49.468;11.044;2023-03-31T02:27:03;5.10;;;2.15;;
20705;SDS011;10514;49.468;11.044;2023-03-31T02:29:27;7.40;;;1.80;;
20705;SDS011;10514;49.468;11.044;2023-03-31T02:32:39;4.68;;;1.60;;
20705;SDS011;10514;49.468;11.044;2023-03-31T02:34:40;4.22;;;1.40;;
20705;SDS011;10514;49.468;11.044;2023-03-31T02:37:06;4.30;;;1.48;;
20705;SDS011;10514;49.468;11.044;2023-03-31T02:39:33;4.07;;;1.60;;
20705;SDS011;10514;49.468;11.044;2023-03-31T02:42:00;4.20;;;1.70;;
20705;SDS011;10514;49.468;11.044;2023-03-31T02:44:31;6.13;;;1.70;;
20705;SDS011;10514;49.468;11.044;2023-03-31T02:46:58;7.22;;;1.50;;
20705;SDS011;10514;49.468;11.044;2023-03-31T02:49:24;3.40;;;1.50;;
20705;SDS011;10514;49.468;11.044;2023-03-31T02:52:00;3.97;;;1.23;;
20705;SDS011;10514;49.468;11.044;2023-03-31T02:54:37;5.63;;;1.45;;
20705;SDS011;10514;49.468;11.044;2023-03-31T03:05:24;5.63;;;1.38;;
20705;SDS011;10514;49.468;11.044;2023-03-31T03:08:06;4.95;;;1.55;;
20705;SDS011;10514;49.468;11.044;2023-03-31T03:11:01;3.75;;;1.50;;
20705;SDS011;10514;49.468;11.044;2023-03-31T03:13:36;3.90;;;1.35;;
20705;SDS011;10514;49.468;11.044;2023-03-31T03:19:06;6.13;;;1.50;;
20705;SDS011;10514;49.468;11.044;2023-03-31T03:21:31;5.22;;;1.70;;
20705;SDS011;10514;49.468;11.044;2023-03-31T03:23:58;7.22;;;1.58;;
20705;SDS011;10514;49.468;11.044;2023-03-31T03:26:25;7.82;;;1.67;;
20705;SDS011;10514;49.468;11.044;2023-03-31T03:28:54;7.15;;;1.65;;
20705;SDS011;10514;49.468;11.044;2023-03-31T03:31:21;3.55;;;1.35;;
20705;SDS011;10514;49.468;11.044;2023-03-31T03:33:48;5.85;;;1.42;;
20705;SDS011;10514;49.468;11.044;2023-03-31T03:36:14;4.05;;;1.60;;
20705;SDS011;10514;49.468;11.044;2023-03-31T03:38:40;6.07;;;1.60;;
20705;SDS011;10514;49.468;11.044;2023-03-31T03:41:06;3.88;;;1.70;;
20705;SDS011;10514;49.468;11.044;2023-03-31T03:43:32;4.60;;;1.55;;
20705;SDS011;10514;49.468;11.044;2023-03-31T03:45:58;5.22;;;1.55;;
20705;SDS011;10514;49.468;11.044;2023-03-31T03:48:24;4.90;;;1.27;;
20705;SDS011;10514;49.468;11.044;2023-03-31T03:50:50;4.55;;;1.40;;
20705;SDS011;10514;49.468;11.044;2023-03-31T03:53:17;6.13;;;1.73;;
20705;SDS011;10514;49.468;11.044;2023-03-31T03:55:43;9.32;;;1.63;;
20705;SDS011;10514;49.468;11.044;2023-03-31T03:58:09;5.40;;;1.45;;
20705;SDS011;10514;49.468;11.044;2023-03-31T04:00:35;7.88;;;1.60;;
20705;SDS011;10514;49.468;11.044;2023-03-31T04:03:01;3.67;;;1.40;;
20705;SDS011;10514;49.468;11.044;2023-03-31T04:05:35;6.93;;;1.60;;
20705;SDS011;10514;49.468;11.044;2023-03-31T04:08:01;5.20;;;1.75;;
20705;SDS011;10514;49.468;11.044;2023-03-31T04:10:28;7.60;;;1.85;;
20705;SDS011;10514;49.468;11.044;2023-03-31T04:12:54;7.28;;;1.63;;
20705;SDS011;10514;49.468;11.044;2023-03-31T04:15:20;4.80;;;1.70;;
20705;SDS011;10514;49.468;11.044;2023-03-31T04:17:46;4.28;;;1.83;;
20705;SDS011;10514;49.468;11.044;2023-03-31T04:20:15;5.03;;;1.45;;
20705;SDS011;10514;49.468;11.044;2023-03-31T04:22:41;6.30;;;1.50;;
20705;SDS011;10514;49.468;11.044;2023-03-31T04:25:11;7.55;;;1.70;;
20705;SDS011;10514;49.468;11.044;2023-03-31T04:27:44;6.20;;;1.58;;
20705;SDS011;10514;49.468;11.044;2023-03-31T04:30:14;2.60;;;1.30;;
20705;SDS011;10514;49.468;11.044;2023-03-31T04:32:47;5.00;;;1.42;;
20705;SDS011;10514;49.468;11.044;2023-03-31T04:35:15;9.23;;;1.58;;
20705;SDS011;10514;49.468;11.044;2023-03-31T04:37:42;4.70;;;1.23;;
20705;SDS011;10514;49.468;11.044;2023-03-31T04:40:08;5.57;;;1.73;;
20705;SDS011;10514;49.468;11.044;2023-03-31T04:42:34;6.05;;;1.45;;
20705;SDS011;10514;49.468;11.044;2023-03-31T04:45:00;1.58;;;1.00;;
20705;SDS011;10514;49.468;11.044;2023-03-31T04:47:26;6.70;;;1.67;;
20705;SDS011;10514;49.468;11.044;2023-03-31T04:49:52;6.85;;;1.65;;
20705;SDS011;10514;49.468;11.044;2023-03-31T04:52:18;7.93;;;1.77;;
20705;SDS011;10514;49.468;11.044;2023-03-31T04:54:45;8.50;;;2.03;;
20705;SDS011;10514;49.468;11.044;2023-03-31T04:57:12;4.55;;;1.52;;
20705;SDS011;10514;49.468;11.044;2023-03-31T04:59:38;6.63;;;1.58;;
20705;SDS011;10514;49.468;11.044;2023-03-31T05:02:03;3.78;;;1.45;;
20705;SDS011;10514;49.468;11.044;2023-03-31T05:04:29;9.13;;;1.55;;
20705;SDS011;10514;49.468;11.044;2023-03-31T05:06:55;4.97;;;1.60;;
20705;SDS011;10514;49.468;11.044;2023-03-31T05:09:21;6.07;;;1.92;;
20705;SDS011;10514;49.468;11.044;2023-03-31T05:11:47;7.50;;;1.70;;
20705;SDS011;10514;49.468;11.044;2023-03-31T05:14:13;5.38;;;1.63;;
20705;SDS011;10514;49.468;11.044;2023-03-31T05:16:39;10.23;;;1.95;;
20705;SDS011;10514;49.468;11.044;2023-03-31T05:19:06;5.15;;;1.92;;
20705;SDS011;10514;49.468;11.044;2023-03-31T05:21:32;5.90;;;1.80;;
20705;SDS011;10514;49.468;11.044;2023-03-31T05:23:58;5.35;;;1.92;;
20705;SDS011;10514;49.468;11.044;2023-03-31T05:26:24;7.78;;;1.88;;
20705;SDS011;10514;49.468;11.044;2023-03-31T05:28:50;6.40;;;1.77;;
20705;SDS011;10514;49.468;11.044;2023-03-31T05:31:17;3.58;;;1.60;;
20705;SDS011;10514;49.468;11.044;2023-03-31T05:33:43;13.63;;;2.30;;
20705;SDS011;10514;49.468;11.044;2023-03-31T05:36:10;4.07;;;2.22;;
20705;SDS011;10514;49.468;11.044;2023-03-31T05:38:38;5.78;;;1.88;;
20705;SDS011;10514;49.468;11.044;2023-03-31T05:41:04;9.80;;;1.98;;
20705;SDS011;10514;49.468;11.044;2023-03-31T05:43:31;9.20;;;2.22;;
20705;SDS011;10514;49.468;11.044;2023-03-31T05:45:57;5.60;;;1.80;;
20705;SDS011;10514;49.468;11.044;2023-03-31T05:48:23;9.20;;;2.00;;
20705;SDS011;10514;49.468;11.044;2023-03-31T05:50:49;10.43;;;2.17;;
20705;SDS011;10514;49.468;11.044;2023-03-31T05:53:15;8.20;;;2.53;;
20705;SDS011;10514;49.468;11.044;2023-03-31T05:55:40;9.77;;;2.72;;
20705;SDS011;10514;49.468;11.044;2023-03-31T05:58:06;8.73;;;2.75;;
20705;SDS011;10514;49.468;11.044;2023-03-31T06:00:32;8.60;;;2.72;;
20705;SDS011;10514;49.468;11.044;2023-03-31T06:03:00;7.70;;;2.50;;
20705;SDS011;10514;49.468;11.044;2023-03-31T06:05:26;6.88;;;2.10;;
20705;SDS011;10514;49.468;11.044;2023-03-31T06:07:54;7.85;;;2.00;;
20705;SDS011;10514;49.468;11.044;2023-03-31T06:10:20;8.48;;;2.60;;
20705;SDS011;10514;49.468;11.044;2023-03-31T06:12:46;6.70;;;2.63;;
20705;SDS011;10514;49.468;11.044;2023-03-31T06:15:12;5.05;;;2.10;;
20705;SDS011;10514;49.468;11.044;2023-03-31T06:17:38;11.13;;;3.58;;
20705;SDS011;10514;49.468;11.044;2023-03-31T06:20:04;4.25;;;2.40;;
20705;SDS011;10514;49.468;11.044;2023-03-31T06:22:31;3.95;;;1.73;;
20705;SDS011;10514;49.468;11.044;2023-03-31T06:24:57;12.27;;;3.25;;
20705;SDS011;10514;49.468;11.044;2023-03-31T06:27:23;8.75;;;3.03;;
20705;SDS011;10514;49.468;11.044;2023-03-31T06:29:49;9.48;;;2.00;;
20705;SDS011;10514;49.468;11.044;2023-03-31T06:32:15;6.35;;;2.15;;
20705;SDS011;10514;49.468;11.044;2023-03-31T06:34:41;4.88;;;2.22;;
20705;SDS011;10514;49.468;11.044;2023-03-31T06:37:07;5.78;;;2.30;;
20705;SDS011;10514;49.468;11.044;2023-03-31T06:39:32;5.10;;;1.80;;
20705;SDS011;10514;49.468;11.044;2023-03-31T06:41:58;10.27;;;2.92;;
20705;SDS011;10514;49.468;11.044;2023-03-31T06:44:24;6.53;;;2.55;;
20705;SDS011;10514;49.468;11.044;2023-03-31T06:46:50;6.43;;;2.33;;
20705;SDS011;10514;49.468;11.044;2023-03-31T06:49:16;7.47;;;2.63;;
20705;SDS011;10514;49.468;11.044;2023-03-31T06:51:42;8.00;;;3.25;;
20705;SDS011;10514;49.468;11.044;2023-03-31T06:54:08;8.93;;;3.00;;
20705;SDS011;10514;49.468;11.044;2023-03-31T06:56:34;7.93;;;2.58;;
20705;SDS011;10514;49.468;11.044;2023-03-31T06:59:00;9.05;;;3.25;;
20705;SDS011;10514;49.468;11.044;2023-03-31T07:01:26;8.77;;;3.03;;
20705;SDS011;10514;49.468;11.044;2023-03-31T07:03:52;12.75;;;3.47;;
20705;SDS011;10514;49.468;11.044;2023-03-31T07:06:18;8.90;;;3.13;;
20705;SDS011;10514;49.468;11.044;2023-03-31T07:08:44;13.82;;;4.15;;
20705;SDS011;10514;49.468;11.044;2023-03-31T07:11:10;9.65;;;3.10;;
20705;SDS011;10514;49.468;11.044;2023-03-31T07:13:36;10.70;;;3.35;;
20705;SDS011;10514;49.468;11.044;2023-03-31T07:16:02;6.63;;;3.30;;
20705;SDS011;10514;49.468;11.044;2023-03-31T07:18:29;7.70;;;3.65;;
20705;SDS011;10514;49.468;11.044;2023-03-31T07:20:59;8.70;;;4.72;;
20705;SDS011;10514;49.468;11.044;2023-03-31T07:23:25;11.25;;;3.97;;
20705;SDS011;10514;49.468;11.044;2023-03-31T07:25:51;7.15;;;3.85;;
20705;SDS011;10514;49.468;11.044;2023-03-31T07:28:17;11.10;;;4.35;;
20705;SDS011;10514;49.468;11.044;2023-03-31T07:30:43;8.70;;;3.75;;
20705;SDS011;10514;49.468;11.044;2023-03-31T07:33:09;7.88;;;3.75;;
20705;SDS011;10514;49.468;11.044;2023-03-31T07:35:39;7.75;;;4.70;;
20705;SDS011;10514;49.468;11.044;2023-03-31T07:38:06;8.20;;;3.95;;
20705;SDS011;10514;49.468;11.044;2023-03-31T07:40:33;13.35;;;4.82;;
20705;SDS011;10514;49.468;11.044;2023-03-31T07:42:59;10.70;;;4.38;;
20705;SDS011;10514;49.468;11.044;2023-03-31T07:45:25;12.43;;;4.40;;
20705;SDS011;10514;49.468;11.044;2023-03-31T07:47:52;12.73;;;5.43;;
20705;SDS011;10514;49.468;11.044;2023-03-31T07:50:18;6.55;;;4.50;;
20705;SDS011;10514;49.468;11.044;2023-03-31T07:52:44;12.82;;;5.47;;
20705;SDS011;10514;49.468;11.044;2023-03-31T07:55:11;9.00;;;4.20;;
20705;SDS011;10514;49.468;11.044;2023-03-31T07:57:37;12.77;;;5.07;;
20705;SDS011;10514;49.468;11.044;2023-03-31T08:00:04;11.38;;;5.85;;
20705;SDS011;10514;49.468;11.044;2023-03-31T08:02:32;12.98;;;5.13;;
20705;SDS011;10514;49.468;11.044;2023-03-31T08:04:58;11.73;;;5.28;;
20705;SDS011;10514;49.468;11.044;2023-03-31T08:07:25;9.95;;;4.93;;
20705;SDS011;10514;49.468;11.044;2023-03-31T08:09:54;11.40;;;5.28;;
20705;SDS011;10514;49.468;11.044;2023-03-31T08:12:21;9.32;;;5.07;;
20705;SDS011;10514;49.468;11.044;2023-03-31T08:14:47;12.82;;;4.65;;
20705;SDS011;10514;49.468;11.044;2023-03-31T08:17:13;19.73;;;5.40;;
20705;SDS011;10514;49.468;11.044;2023-03-31T08:19:39;13.55;;;5.60;;
20705;SDS011;10514;49.468;11.044;2023-03-31T08:22:05;8.10;;;4.47;;
20705;SDS011;10514;49.468;11.044;2023-03-31T08:24:31;13.93;;;5.40;;
20705;SDS011;10514;49.468;11.044;2023-03-31T08:26:57;11.85;;;5.18;;
20705;SDS011;10514;49.468;11.044;2023-03-31T08:29:23;10.80;;;5.03;;
20705;SDS011;10514;49.468;11.044;2023-03-31T08:31:49;12.45;;;5.10;;
20705;SDS011;10514;49.468;11.044;2023-03-31T08:34:15;14.27;;;5.78;;
20705;SDS011;10514;49.468;11.044;2023-03-31T08:36:41;12.93;;;5.05;;
20705;SDS011;10514;49.468;11.044;2023-03-31T08:39:07;10.23;;;4.88;;
20705;SDS011;10514;49.468;11.044;2023-03-31T08:42:16;8.55;;;4.47;;
20705;SDS011;10514;49.468;11.044;2023-03-31T08:44:35;10.32;;;4.32;;
20705;SDS011;10514;49.468;11.044;2023-03-31T08:47:02;11.15;;;5.18;;
20705;SDS011;10514;49.468;11.044;2023-03-31T08:49:36;11.77;;;4.25;;
20705;SDS011;10514;49.468;11.044;2023-03-31T08:52:05;10.32;;;5.32;;
20705;SDS011;10514;49.468;11.044;2023-03-31T08:54:38;9.98;;;4.47;;
20705;SDS011;10514;49.468;11.044;2023-03-31T08:57:09;9.50;;;5.03;;
20705;SDS011;10514;49.468;11.044;2023-03-31T08:59:37;9.50;;;4.97;;
20705;SDS011;10514;49.468;11.044;2023-03-31T09:02:23;12.18;;;5.80;;
20705;SDS011;10514;49.468;11.044;2023-03-31T09:07:50;13.00;;;5.45;;
20705;SDS011;10514;49.468;11.044;2023-03-31T09:10:38;9.48;;;5.53;;
20705;SDS011;10514;49.468;11.044;2023-03-31T09:18:26;9.38;;;4.65;;
20705;SDS011;10514;49.468;11.044;2023-03-31T09:20:55;10.05;;;5.28;;
20705;SDS011;10514;49.468;11.044;2023-03-31T09:23:25;8.25;;;4.47;;
20705;SDS011;10514;49.468;11.044;2023-03-31T09:25:52;11.32;;;3.95;;
20705;SDS011;10514;49.468;11.044;2023-03-31T09:28:22;11.38;;;4.07;;
20705;SDS011;10514;49.468;11.044;2023-03-31T09:30:51;6.35;;;3.88;;
20705;SDS011;10514;49.468;11.044;2023-03-31T09:35:43;6.75;;;4.22;;
20705;SDS011;10514;49.468;11.044;2023-03-31T09:38:13;7.90;;;3.67;;
20705;SDS011;10514;49.468;11.044;2023-03-31T09:40:39;6.90;;;4.00;;
20705;SDS011;10514;49.468;11.044;2023-03-31T09:43:06;7.22;;;3.50;;
20705;SDS011;10514;49.468;11.044;2023-03-31T09:45:37;9.82;;;4.05;;
20705;SDS011;10514;49.468;11.044;2023-03-31T09:48:04;8.23;;;3.78;;
20705;SDS011;10514;49.468;11.044;2023-03-31T09:50:31;6.82;;;3.20;;
20705;SDS011;10514;49.468;11.044;2023-03-31T09:53:01;5.07;;;2.72;;
20705;SDS011;10514;49.468;11.044;2023-03-31T09:55:35;10.63;;;2.78;;
20705;SDS011;10514;49.468;11.044;2023-03-31T09:58:07;3.92;;;2.20;;
20705;SDS011;10514;49.468;11.044;2023-03-31T10:00:36;6.97;;;2.58;;
20705;SDS011;10514;49.468;11.044;2023-03-31T10:03:05;2.83;;;1.70;;
20705;SDS011;10514;49.468;11.044;2023-03-31T10:05:32;4.82;;;1.67;;
20705;SDS011;10514;49.468;11.044;2023-03-31T10:13:19;5.28;;;1.75;;
20705;SDS011;10514;49.468;11.044;2023-03-31T10:15:46;5.55;;;1.38;;
20705;SDS011;10514;49.468;11.044;2023-03-31T10:18:17;3.58;;;1.58;;
20705;SDS011;10514;49.468;11.044;2023-03-31T10:20:48;5.90;;;2.17;;
20705;SDS011;10514;49.468;11.044;2023-03-31T10:23:16;3.58;;;1.70;;
20705;SDS011;10514;49.468;11.044;2023-03-31T10:25:42;4.97;;;1.55;;
20705;SDS011;10514;49.468;11.044;2023-03-31T10:28:09;5.75;;;1.42;;
20705;SDS011;10514;49.468;11.044;2023-03-31T10:30:37;4.57;;;1.75;;
20705;SDS011;10514;49.468;11.044;2023-03-31T10:33:10;3.50;;;1.58;;
20705;SDS011;10514;49.468;11.044;2023-03-31T10:35:38;7.03;;;1.55;;
20705;SDS011;10514;49.468;11.044;2023-03-31T10:38:05;2.85;;;1.42;;
20705;SDS011;10514;49.468;11.044;2023-03-31T10:40:32;6.38;;;1.42;;
20705;SDS011;10514;49.468;11.044;2023-03-31T10:43:00;6.75;;;1.40;;
20705;SDS011;10514;49.468;11.044;2023-03-31T10:45:42;7.18;;;1.27;;
20705;SDS011;10514;49.468;11.044;2023-03-31T10:48:43;5.05;;;1.40;;
20705;SDS011;10514;49.468;11.044;2023-03-31T10:54:12;5.35;;;1.40;;
20705;SDS011;10514;49.468;11.044;2023-03-31T11:15:22;4.35;;;1.30;;
20705;SDS011;10514;49.468;11.044;2023-03-31T11:17:53;6.07;;;1.30;;
20705;SDS011;10514;49.468;11.044;2023-03-31T11:20:25;4.75;;;1.10;;
20705;SDS011;10514;49.468;11.044;2023-03-31T11:40:35;3.08;;;0.85;;
20705;SDS011;10514;49.468;11.044;2023-03-31T11:45:40;4.00;;;0.90;;
20705;SDS011;10514;49.468;11.044;2023-03-31T11:48:14;6.60;;;1.10;;
20705;SDS011;10514;49.468;11.044;2023-03-31T11:50:42;4.25;;;0.98;;
20705;SDS011;10514;49.468;11.044;2023-03-31T11:53:19;5.18;;;0.88;;
20705;SDS011;10514;49.468;11.044;2023-03-31T11:55:52;2.95;;;1.17;;
20705;SDS011;10514;49.468;11.044;2023-03-31T11:58:22;5.38;;;1.00;;
20705;SDS011;10514;49.468;11.044;2023-03-31T12:03:41;5.90;;;1.02;;
20705;SDS011;10514;49.468;11.044;2023-03-31T12:06:14;3.53;;;0.90;;
20705;SDS011;10514;49.468;11.044;2023-03-31T12:11:18;3.60;;;1.15;;
20705;SDS011;10514;49.468;11.044;2023-03-31T12:14:00;4.05;;;1.00;;
20705;SDS011;10514;49.468;11.044;2023-03-31T12:16:39;4.70;;;1.20;;
20705;SDS011;10514;49.468;11.044;2023-03-31T12:24:46;1.60;;;1.02;;
20705;SDS011;10514;49.468;11.044;2023-03-31T12:30:02;2.88;;;0.63;;
20705;SDS011;10514;49.468;11.044;2023-03-31T12:32:30;1.63;;;0.80;;
20705;SDS011;10514;49.468;11.044;2023-03-31T12:35:01;2.45;;;0.82;;
20705;SDS011;10514;49.468;11.044;2023-03-31T12:40:06;2.13;;;0.90;;
20705;SDS011;10514;49.468;11.044;2023-03-31T12:43:06;4.43;;;1.15;;
20705;SDS011;10514;49.468;11.044;2023-03-31T12:48:42;2.80;;;0.80;;
20705;SDS011;10514;49.468;11.044;2023-03-31T12:56:14;2.60;;;0.73;;
20705;SDS011;10514;49.468;11.044;2023-03-31T12:58:41;3.88;;;0.88;;
20705;SDS011;10514;49.468;11.044;2023-03-31T13:01:23;1.92;;;0.90;;
20705;SDS011;10514;49.468;11.044;2023-03-31T13:04:34;3.15;;;0.80;;
20705;SDS011;10514;49.468;11.044;2023-03-31T13:06:47;6.45;;;1.63;;
20705;SDS011;10514;49.468;11.044;2023-03-31T13:11:41;3.25;;;0.88;;
20705;SDS011;10514;49.468;11.044;2023-03-31T13:17:09;0.70;;;0.60;;
20705;SDS011;10514;49.468;11.044;2023-03-31T13:19:36;2.05;;;0.98;;
20705;SDS011;10514;49.468;11.044;2023-03-31T13:22:03;1.90;;;0.60;;
20705;SDS011;10514;49.468;11.044;2023-03-31T13:24:30;1.38;;;0.50;;
20705;SDS011;10514;49.468;11.044;2023-03-31T13:26:58;2.45;;;0.82;;
20705;SDS011;10514;49.468;11.044;2023-03-31T13:29:37;7.97;;;1.00;;
20705;SDS011;10514;49.468;11.044;2023-03-31T13:32:05;3.17;;;0.60;;
20705;SDS011;10514;49.468;11.044;2023-03-31T13:37:13;2.42;;;0.70;;
20705;SDS011;10514;49.468;11.044;2023-03-31T13:40:06;2.55;;;0.65;;
20705;SDS011;10514;49.468;11.044;2023-03-31T13:42:52;1.90;;;0.60;;
20705;SDS011;10514;49.468;11.044;2023-03-31T13:53:27;2.35;;;0.60;;
20705;SDS011;10514;49.468;11.044;2023-03-31T14:06:52;2.30;;;0.90;;
20705;SDS011;10514;49.468;11.044;2023-03-31T14:09:23;2.78;;;0.70;;
20705;SDS011;10514;49.468;11.044;2023-03-31T14:11:57;4.85;;;0.90;;
20705;SDS011;10514;49.468;11.044;2023-03-31T14:14:23;4.40;;;0.70;;
20705;SDS011;10514;49.468;11.044;2023-03-31T14:16:51;4.07;;;0.50;;
20705;SDS011;10514;49.468;11.044;2023-03-31T14:24:43;5.15;;;1.08;;
20705;SDS011;10514;49.468;11.044;2023-03-31T14:33:08;5.18;;;1.10;;
20705;SDS011;10514;49.468;11.044;2023-03-31T14:38:11;4.95;;;0.82;;
20705;SDS011;10514;49.468;11.044;2023-03-31T14:40:46;3.47;;;1.02;;
20705;SDS011;10514;49.468;11.044;2023-03-31T14:43:17;1.85;;;0.73;;
20705;SDS011;10514;49.468;11.044;2023-03-31T14:45:56;3.25;;;0.80;;
20705;SDS011;10514;49.468;11.044;2023-03-31T14:48:22;2.75;;;0.80;;
20705;SDS011;10514;49.468;11.044;2023-03-31T14:50:48;2.03;;;0.73;;
20705;SDS011;10514;49.468;11.044;2023-03-31T14:53:16;2.15;;;0.70;;
20705;SDS011;10514;49.468;11.044;2023-03-31T14:55:43;1.38;;;0.50;;
20705;SDS011;10514;49.468;11.044;2023-03-31T14:58:12;2.65;;;0.70;;
20705;SDS011;10514;49.468;11.044;2023-03-31T15:00:39;5.03;;;0.73;;
20705;SDS011;10514;49.468;11.044;2023-03-31T15:03:07;2.13;;;0.63;;
20705;SDS011;10514;49.468;11.044;2023-03-31T15:05:37;3.58;;;0.70;;
20705;SDS011;10514;49.468;11.044;2023-03-31T15:08:05;1.60;;;0.90;;
20705;SDS011;10514;49.468;11.044;2023-03-31T15:10:34;1.48;;;0.63;;
20705;SDS011;10514;49.468;11.044;2023-03-31T15:13:08;3.30;;;0.80;;
20705;SDS011;10514;49.468;11.044;2023-03-31T15:15:34;2.38;;;0.63;;
20705;SDS011;10514;49.468;11.044;2023-03-31T15:18:00;3.53;;;0.70;;
20705;SDS011;10514;49.468;11.044;2023-03-31T15:20:27;1.90;;;0.43;;
20705;SDS011;10514;49.468;11.044;2023-03-31T15:22:55;3.65;;;0.77;;
20705;SDS011;10514;49.468;11.044;2023-03-31T15:25:21;2.72;;;1.25;;
20705;SDS011;10514;49.468;11.044;2023-03-31T15:27:57;4.30;;;1.02;;
20705;SDS011;10514;49.468;11.044;2023-03-31T15:30:25;1.45;;;0.60;;
20705;SDS011;10514;49.468;11.044;2023-03-31T15:32:52;1.77;;;0.80;;
20705;SDS011;10514;49.468;11.044;2023-03-31T15:37:50;4.28;;;0.85;;
20705;SDS011;10514;49.468;11.044;2023-03-31T15:42:56;4.18;;;0.73;;
20705;SDS011;10514;49.468;11.044;2023-03-31T15:47:50;4.95;;;1.27;;
20705;SDS011;10514;49.468;11.044;2023-03-31T15:50:17;2.72;;;1.08;;
20705;SDS011;10514;49.468;11.044;2023-03-31T15:52:53;3.42;;;1.10;;
20705;SDS011;10514;49.468;11.044;2023-03-31T15:57:51;2.15;;;0.68;;
20705;SDS011;10514;49.468;11.044;2023-03-31T16:02:56;1.23;;;0.68;;
20705;SDS011;10514;49.468;11.044;2023-03-31T16:05:45;3.13;;;0.77;;
20705;SDS011;10514;49.468;11.044;2023-03-31T16:08:13;4.82;;;0.80;;
20705;SDS011;10514;49.468;11.044;2023-03-31T16:10:46;1.35;;;0.80;;
20705;SDS011;10514;49.468;11.044;2023-03-31T16:13:16;2.17;;;1.10;;
20705;SDS011;10514;49.468;11.044;2023-03-31T16:15:47;2.22;;;0.63;;
20705;SDS011;10514;49.468;11.044;2023-03-31T16:18:17;4.45;;;0.77;;
20705;SDS011;10514;49.468;11.044;2023-03-31T16:20:52;2.38;;;0.60;;
20705;SDS011;10514;49.468;11.044;2023-03-31T16:23:20;3.00;;;0.60;;
20705;SDS011;10514;49.468;11.044;2023-03-31T16:25:59;2.67;;;0.80;;
20705;SDS011;10514;49.468;11.044;2023-03-31T16:28:26;6.88;;;0.90;;
20705;SDS011;10514;49.468;11.044;2023-03-31T16:30:53;2.15;;;0.80;;
20705;SDS011;10514;49.468;11.044;2023-03-31T16:33:20;3.25;;;0.65;;
20705;SDS011;10514;49.468;11.044;2023-03-31T16:35:50;2.35;;;0.80;;
20705;SDS011;10514;49.468;11.044;2023-03-31T16:38:20;3.78;;;1.10;;
20705;SDS011;10514;49.468;11.044;2023-03-31T16:40:47;3.25;;;0.77;;
20705;SDS011;10514;49.468;11.044;2023-03-31T16:43:17;2.50;;;0.90;;
20705;SDS011;10514;49.468;11.044;2023-03-31T16:45:54;2.22;;;0.80;;
20705;SDS011;10514;49.468;11.044;2023-03-31T16:48:21;4.20;;;1.00;;
20705;SDS011;10514;49.468;11.044;2023-03-31T16:50:48;3.88;;;0.90;;
20705;SDS011;10514;49.468;11.044;2023-03-31T16:53:16;7.60;;;0.80;;
20705;SDS011;10514;49.468;11.044;2023-03-31T16:55:43;3.13;;;0.90;;
20705;SDS011;10514;49.468;11.044;2023-03-31T16:58:09;2.20;;;0.70;;
20705;SDS011;10514;49.468;11.044;2023-03-31T17:00:35;4.20;;;0.80;;
20705;SDS011;10514;49.468;11.044;2023-03-31T17:03:04;5.55;;;0.95;;
20705;SDS011;10514;49.468;11.044;2023-03-31T17:05:30;6.60;;;1.25;;
20705;SDS011;10514;49.468;11.044;2023-03-31T17:07:57;4.10;;;1.08;;
20705;SDS011;10514;49.468;11.044;2023-03-31T17:10:24;3.65;;;1.00;;
20705;SDS011;10514;49.468;11.044;2023-03-31T17:12:50;4.47;;;0.90;;
20705;SDS011;10514;49.468;11.044;2023-03-31T17:15:16;4.22;;;1.17;;
20705;SDS011;10514;49.468;11.044;2023-03-31T17:17:42;3.15;;;0.90;;
20705;SDS011;10514;49.468;11.044;2023-03-31T17:20:09;2.85;;;1.00;;
20705;SDS011;10514;49.468;11.044;2023-03-31T17:22:35;2.13;;;0.95;;
20705;SDS011;10514;49.468;11.044;2023-03-31T17:25:01;5.75;;;1.00;;
20705;SDS011;10514;49.468;11.044;2023-03-31T17:27:27;2.08;;;0.90;;
20705;SDS011;10514;49.468;11.044;2023-03-31T17:29:54;3.50;;;1.27;;
20705;SDS011;10514;49.468;11.044;2023-03-31T17:32:20;1.75;;;1.02;;
20705;SDS011;10514;49.468;11.044;2023-03-31T17:34:47;4.65;;;1.30;;
20705;SDS011;10514;49.468;11.044;2023-03-31T17:37:14;2.42;;;0.90;;
20705;SDS011;10514;49.468;11.044;2023-03-31T17:39:40;5.20;;;1.40;;
20705;SDS011;10514;49.468;11.044;2023-03-31T17:42:06;5.32;;;1.40;;
20705;SDS011;10514;49.468;11.044;2023-03-31T17:44:32;5.85;;;1.23;;
20705;SDS011;10514;49.468;11.044;2023-03-31T17:46:58;6.75;;;1.90;;